Time;durP1;ratioP1;P1;durP2;ratioP2;P2;SDS_P1;SDS_P2;PMS_P1;PMS_P2;Temp;Humidity;BMP_temperature;BMP_pressure;BME280_temperature;BME280_humidity;BME280_pressure;Samples;Min_cycle;Max_cycle;Signal;HPM_P1;HPM_P2
2021/07/29 00:00:50;;;;;;;5.13;3.80;;;;;;;19.86;69.05;99984.38;5051855;28;20232;-64
2021/07/29 00:03:18;;;;;;;7.03;4.70;;;;;;;19.83;68.91;99982.03;5051934;28;20199;-65
2021/07/29 00:05:49;;;;;;;4.90;3.93;;;;;;;19.76;69.01;99990.09;5051877;28;20690;-65
2021/07/29 00:08:18;;;;;;;5.60;4.10;;;;;;;19.71;69.37;99984.34;5051110;28;20198;-64
2021/07/29 00:10:48;;;;;;;6.40;4.30;;;;;;;19.49;69.96;99961.47;5051556;28;20194;-65
2021/07/29 00:13:17;;;;;;;7.87;4.17;;;;;;;19.58;70.09;99988.69;5051786;28;20194;-64
2021/07/29 00:15:45;;;;;;;7.87;4.63;;;;;;;19.60;69.30;99990.22;5064813;28;20195;-66
2021/07/29 00:21:01;;;;;;;5.73;4.17;;;;;;;19.52;69.82;99988.34;5051613;28;20547;-65
2021/07/29 00:23:29;;;;;;;7.17;4.73;;;;;;;19.45;69.67;99979.22;5050110;28;20201;-66
2021/07/29 00:25:57;;;;;;;11.43;4.67;;;;;;;19.48;69.37;99987.03;5051606;28;20229;-65
2021/07/29 00:28:26;;;;;;;6.47;4.50;;;;;;;19.33;71.01;99982.53;5047158;28;20234;-65
2021/07/29 00:30:54;;;;;;;7.23;4.77;;;;;;;19.33;70.06;99972.50;5051565;28;20285;-65
2021/07/29 00:33:23;;;;;;;7.53;4.50;;;;;;;19.38;69.63;99983.69;5051431;28;20205;-65
2021/07/29 00:35:51;;;;;;;11.07;4.53;;;;;;;19.35;69.68;99977.75;5050335;28;20210;-65
2021/07/29 00:38:20;;;;;;;7.27;4.53;;;;;;;19.35;70.12;99981.31;5049979;28;20202;-65
2021/07/29 00:40:49;;;;;;;7.27;4.70;;;;;;;19.34;70.23;99976.91;5051079;28;20661;-66
2021/07/29 00:43:17;;;;;;;7.17;4.90;;;;;;;19.32;71.18;99980.84;5051241;28;20205;-65
2021/07/29 00:45:46;;;;;;;9.00;5.03;;;;;;;19.33;70.91;99972.50;5051132;28;20277;-66
2021/07/29 00:48:18;;;;;;;8.87;5.47;;;;;;;19.36;70.00;99972.13;5051046;28;20576;-66
2021/07/29 00:50:49;;;;;;;9.17;5.30;;;;;;;19.38;69.44;99969.22;5051127;28;20331;-64
2021/07/29 00:53:17;;;;;;;8.50;4.87;;;;;;;19.40;69.93;99968.00;5049564;28;20202;-64
2021/07/29 00:55:46;;;;;;;10.67;5.53;;;;;;;19.39;70.99;99960.88;5050432;28;20193;-66
2021/07/29 00:58:14;;;;;;;10.30;5.17;;;;;;;19.41;71.13;99964.25;5050836;28;20275;-64
2021/07/29 01:00:42;;;;;;;7.33;4.97;;;;;;;19.41;71.54;99957.97;5049957;28;20776;-64
2021/07/29 01:03:11;;;;;;;8.77;5.20;;;;;;;19.35;72.55;99953.25;5032268;28;20202;-65
2021/07/29 01:05:39;;;;;;;12.63;5.40;;;;;;;19.34;72.45;99962.44;5037429;28;20206;-65
2021/07/29 01:08:10;;;;;;;8.60;5.13;;;;;;;19.38;71.13;99956.47;5032577;28;20558;-65
2021/07/29 01:10:38;;;;;;;7.50;5.23;;;;;;;19.38;71.48;99951.00;5038348;28;20707;-65
2021/07/29 01:13:06;;;;;;;7.60;4.80;;;;;;;19.38;71.45;99952.88;5041756;28;20213;-66
2021/07/29 01:15:34;;;;;;;8.00;5.53;;;;;;;19.39;71.60;99957.31;5048345;28;20294;-66
2021/07/29 01:18:03;;;;;;;6.93;4.70;;;;;;;19.37;71.03;99946.59;5049993;28;20198;-66
2021/07/29 01:20:33;;;;;;;8.27;4.60;;;;;;;19.31;71.17;99936.44;5050515;28;20252;-65
2021/07/29 01:23:01;;;;;;;9.80;4.97;;;;;;;19.35;71.32;99953.25;5050793;28;21123;-65
2021/07/29 01:25:29;;;;;;;7.83;4.73;;;;;;;19.35;70.89;99951.38;5049816;28;20381;-66
2021/07/29 01:27:58;;;;;;;7.50;4.47;;;;;;;19.34;70.31;99949.69;5050063;28;20202;-66
2021/07/29 01:30:26;;;;;;;7.63;4.70;;;;;;;19.35;70.53;99951.38;5049522;28;20226;-66
2021/07/29 01:32:54;;;;;;;7.47;4.67;;;;;;;19.33;70.56;99945.25;5050645;28;20202;-65
2021/07/29 01:35:23;;;;;;;8.40;4.80;;;;;;;19.30;70.91;99942.06;5050235;28;20210;-65
2021/07/29 01:37:52;;;;;;;6.90;4.80;;;;;;;19.25;70.63;99942.56;5050223;28;20208;-66
2021/07/29 01:40:21;;;;;;;8.30;4.77;;;;;;;19.21;70.50;99942.09;5050392;28;20714;-66
2021/07/29 01:42:49;;;;;;;6.87;4.87;;;;;;;19.18;70.61;99938.88;5050410;28;20285;-66
2021/07/29 01:45:17;;;;;;;7.13;4.70;;;;;;;19.12;70.45;99942.31;5050560;28;20202;-66
2021/07/29 01:47:45;;;;;;;6.40;4.40;;;;;;;19.03;71.57;99929.78;5049569;28;20535;-66
2021/07/29 01:50:13;;;;;;;7.07;4.73;;;;;;;19.01;71.47;99942.72;5050209;28;20225;-66
2021/07/29 01:52:41;;;;;;;6.03;4.30;;;;;;;18.95;70.65;99929.81;5050299;28;20209;-66
2021/07/29 01:55:11;;;;;;;7.10;4.90;;;;;;;18.90;70.75;99927.63;5042652;28;20194;-66
2021/07/29 01:57:39;;;;;;;8.33;4.30;;;;;;;18.86;69.73;99927.13;5047417;28;20709;-65
2021/07/29 02:00:09;;;;;;;6.83;4.30;;;;;;;18.92;69.82;99936.47;5051835;28;20221;-64
2021/07/29 02:02:39;;;;;;;5.67;4.03;;;;;;;18.87;69.80;99931.56;5048385;28;20540;-65
2021/07/29 02:05:09;;;;;;;6.63;4.73;;;;;;;18.85;70.00;99930.03;5050348;28;20221;-65
2021/07/29 02:07:37;;;;;;;5.27;4.00;;;;;;;18.83;69.05;99932.94;5049977;28;20209;-65
2021/07/29 02:10:06;;;;;;;5.60;4.30;;;;;;;18.77;69.08;99927.38;5050255;28;20226;-66
2021/07/29 02:12:36;;;;;;;5.93;4.07;;;;;;;18.64;69.72;99903.44;5049792;28;20221;-65
2021/07/29 02:15:04;;;;;;;6.60;4.30;;;;;;;18.74;69.34;99923.13;5048747;28;20206;-65
2021/07/29 02:17:32;;;;;;;7.03;4.60;;;;;;;18.69;69.57;99919.25;5049227;28;20202;-65
2021/07/29 02:20:01;;;;;;;7.37;4.50;;;;;;;18.65;69.50;99924.16;5048981;28;20580;-65
2021/07/29 02:22:29;;;;;;;7.53;4.10;;;;;;;18.56;69.54;99914.31;5049169;28;20197;-66
2021/07/29 02:24:57;;;;;;;9.47;4.33;;;;;;;18.56;69.26;99914.31;5048804;28;20210;-65
2021/07/29 02:27:25;;;;;;;9.57;4.07;;;;;;;18.49;68.99;99914.19;5049190;28;20205;-65
2021/07/29 02:29:57;;;;;;;7.03;4.70;;;;;;;18.49;69.58;99916.06;5049372;28;20296;-64
2021/07/29 02:32:25;;;;;;;6.50;4.27;;;;;;;18.45;69.09;99912.00;5049562;28;20212;-65
2021/07/29 02:34:53;;;;;;;6.17;4.27;;;;;;;18.41;69.22;99908.78;5049899;28;20647;-65
2021/07/29 02:37:22;;;;;;;6.33;4.23;;;;;;;18.37;69.38;99910.16;5050028;28;20202;-64
2021/07/29 02:39:50;;;;;;;10.00;4.40;;;;;;;18.30;69.40;99901.81;5049795;28;20865;-65
2021/07/29 02:42:18;;;;;;;6.30;4.20;;;;;;;18.29;69.01;99902.84;5052264;28;20635;-65
2021/07/29 02:44:47;;;;;;;6.70;4.23;;;;;;;18.28;69.45;99917.47;5053046;28;20202;-66
2021/07/29 02:47:16;;;;;;;6.40;4.10;;;;;;;18.13;69.31;99897.47;5052707;28;20206;-66
2021/07/29 02:49:44;;;;;;;6.13;4.03;;;;;;;18.24;69.01;99913.41;5053372;28;20209;-65
2021/07/29 02:52:12;;;;;;;7.63;4.47;;;;;;;18.24;68.69;99918.00;5053473;28;20206;-65
2021/07/29 02:54:41;;;;;;;5.83;4.30;;;;;;;18.19;68.83;99915.78;5039681;28;20194;-66
2021/07/29 02:57:09;;;;;;;8.80;4.30;;;;;;;18.18;68.80;99910.53;5053770;28;20697;-66
2021/07/29 02:59:38;;;;;;;8.17;4.63;;;;;;;18.15;68.95;99914.44;5052334;28;20217;-65
2021/07/29 03:02:06;;;;;;;6.77;4.50;;;;;;;18.13;69.49;99912.94;5051642;28;20279;-66
2021/07/29 03:04:36;;;;;;;6.03;4.13;;;;;;;18.12;69.42;99911.22;5050526;28;20562;-66
2021/07/29 03:07:05;;;;;;;8.70;4.73;;;;;;;18.11;69.61;99910.38;5051122;28;20208;-66
2021/07/29 03:09:33;;;;;;;6.13;4.27;;;;;;;18.13;69.28;99902.91;5051833;28;20220;-66
2021/07/29 03:12:01;;;;;;;7.77;4.70;;;;;;;18.13;69.80;99897.47;5052348;28;20229;-65
2021/07/29 03:14:29;;;;;;;6.97;4.37;;;;;;;18.19;70.03;99902.22;5051855;28;20210;-66
2021/07/29 03:16:57;;;;;;;5.53;4.20;;;;;;;18.19;69.83;99904.91;5055163;28;20209;-66
2021/07/29 03:19:26;;;;;;;5.87;3.97;;;;;;;18.14;70.25;99893.72;5050141;28;20590;-66
2021/07/29 03:21:55;;;;;;;5.90;4.03;;;;;;;18.07;71.27;99900.88;5050525;28;20849;-66
2021/07/29 03:24:23;;;;;;;6.10;4.60;;;;;;;18.08;70.92;99904.44;5051236;28;20198;-65
2021/07/29 03:26:51;;;;;;;12.23;4.33;;;;;;;18.05;71.54;99900.19;5051711;28;20210;-66
2021/07/29 03:29:19;;;;;;;8.67;4.40;;;;;;;18.14;71.36;99899.16;5052292;28;20230;-64
2021/07/29 03:31:47;;;;;;;7.53;4.67;;;;;;;18.18;72.38;99888.78;5052292;28;20554;-64
2021/07/29 03:34:16;;;;;;;8.50;4.43;;;;;;;18.28;72.44;99893.00;5052456;28;20198;-65
2021/07/29 03:36:44;;;;;;;8.87;3.70;;;;;;;18.29;72.57;99882.97;5051141;28;20221;-64
2021/07/29 03:39:13;;;;;;;8.83;4.07;;;;;;;18.53;72.94;99890.19;5050473;28;20202;-65
2021/07/29 03:41:42;;;;;;;3.63;2.53;;;;;;;18.50;72.52;99871.53;5050846;28;20197;-65
2021/07/29 03:44:10;;;;;;;4.13;3.17;;;;;;;18.70;72.02;99891.03;5049975;28;20200;-66
2021/07/29 03:46:38;;;;;;;7.10;3.27;;;;;;;18.74;72.02;99897.78;5049598;28;20206;-66
2021/07/29 03:49:06;;;;;;;4.73;3.67;;;;;;;18.75;72.28;99896.78;5051333;28;20201;-66
2021/07/29 03:51:34;;;;;;;6.03;4.40;;;;;;;18.73;72.38;99893.38;5048875;28;20301;-66
2021/07/29 03:54:02;;;;;;;4.83;3.80;;;;;;;18.69;72.36;99876.56;5050997;28;20217;-66
2021/07/29 03:56:32;;;;;;;6.97;4.50;;;;;;;18.82;73.08;99890.44;5047802;28;20581;-66
2021/07/29 03:59:01;;;;;;;6.47;4.40;;;;;;;18.97;72.60;99889.66;5051065;28;20233;-66
2021/07/29 04:01:29;;;;;;;6.77;4.60;;;;;;;19.02;72.81;99882.69;5044689;28;21180;-64
2021/07/29 04:03:57;;;;;;;7.97;4.90;;;;;;;19.11;72.59;99878.88;5052349;28;20893;-66
2021/07/29 04:06:25;;;;;;;6.47;4.37;;;;;;;19.10;73.59;99870.88;5051548;28;20198;-66
2021/07/29 04:08:54;;;;;;;8.40;4.60;;;;;;;19.30;73.75;99885.72;5052251;28;20212;-65
2021/07/29 04:11:22;;;;;;;8.90;5.30;;;;;;;19.40;73.37;99880.88;5051428;28;20225;-64
2021/07/29 04:13:51;;;;;;;7.73;4.73;;;;;;;19.41;73.41;99860.78;5051884;28;20194;-65
2021/07/29 04:16:19;;;;;;;7.37;4.73;;;;;;;19.58;72.33;99874.28;5052135;28;20217;-65
2021/07/29 04:18:48;;;;;;;9.80;5.33;;;;;;;19.67;72.38;99879.50;5050704;28;20202;-64
2021/07/29 04:21:16;;;;;;;12.40;5.53;;;;;;;19.70;72.79;99881.00;5067507;28;20205;-66
2021/07/29 04:23:44;;;;;;;8.63;5.70;;;;;;;19.75;73.36;99879.41;5050709;28;20201;-66
2021/07/29 04:26:12;;;;;;;8.27;5.30;;;;;;;19.87;72.25;99887.13;5043301;28;20206;-64
2021/07/29 04:28:40;;;;;;;11.03;5.77;;;;;;;19.96;71.91;99883.31;5051545;28;20233;-65
2021/07/29 04:31:10;;;;;;;7.70;5.10;;;;;;;19.89;72.08;99869.56;5051441;28;20233;-65
2021/07/29 04:33:38;;;;;;;7.70;5.27;;;;;;;20.00;72.32;99876.44;5050355;28;20313;-66
2021/07/29 04:36:07;;;;;;;10.10;5.50;;;;;;;20.06;71.86;99871.09;5043560;28;20210;-65
2021/07/29 04:38:35;;;;;;;9.03;5.40;;;;;;;20.14;71.46;99881.06;5051561;28;20205;-66
2021/07/29 04:41:04;;;;;;;8.47;4.90;;;;;;;20.21;69.71;99873.84;5049895;28;20222;-64
2021/07/29 04:43:32;;;;;;;11.33;5.53;;;;;;;20.26;69.07;99862.38;5051129;28;20206;-64
2021/07/29 04:46:02;;;;;;;7.23;4.90;;;;;;;20.39;68.41;99870.72;5049870;28;20194;-66
2021/07/29 04:48:32;;;;;;;9.17;4.50;;;;;;;20.48;68.76;99868.75;5049546;28;20241;-66
2021/07/29 04:51:02;;;;;;;8.50;4.67;;;;;;;20.44;69.17;99851.94;5049926;28;20227;-66
2021/07/29 04:53:31;;;;;;;7.33;4.67;;;;;;;20.52;70.04;99860.03;5050177;28;20308;-66
2021/07/29 04:55:59;;;;;;;7.43;4.40;;;;;;;20.54;69.71;99852.50;5050306;28;20206;-66
2021/07/29 04:58:27;;;;;;;6.27;4.57;;;;;;;20.59;69.72;99860.13;5050077;28;20214;-66
2021/07/29 05:00:55;;;;;;;5.63;3.93;;;;;;;20.69;69.06;99861.50;5050193;28;20225;-66
2021/07/29 05:03:25;;;;;;;5.03;4.10;;;;;;;20.74;67.41;99852.72;5050829;28;20713;-66
2021/07/29 05:05:55;;;;;;;6.70;4.50;;;;;;;20.89;66.10;99855.44;5050816;28;20204;-65
2021/07/29 05:08:23;;;;;;;9.57;4.50;;;;;;;21.00;66.85;99857.66;5050878;28;20281;-66
2021/07/29 05:10:51;;;;;;;9.33;4.43;;;;;;;21.02;67.38;99861.03;5051065;28;20206;-65
2021/07/29 05:13:19;;;;;;;7.57;4.47;;;;;;;21.11;66.12;99846.22;5050390;28;20229;-65
2021/07/29 05:15:47;;;;;;;6.07;4.23;;;;;;;21.21;67.05;99851.38;5050301;28;20205;-65
2021/07/29 05:18:15;;;;;;;9.47;4.33;;;;;;;21.36;67.00;99853.00;5050869;28;20689;-65
2021/07/29 05:20:43;;;;;;;11.63;4.90;;;;;;;21.52;66.78;99856.53;5050762;28;20206;-66
2021/07/29 05:23:13;;;;;;;9.07;4.40;;;;;;;21.70;64.80;99844.06;5049991;28;20200;-66
2021/07/29 05:25:41;;;;;;;10.00;4.60;;;;;;;21.92;64.71;99846.75;5049335;28;20662;-66
2021/07/29 05:28:09;;;;;;;7.40;3.87;;;;;;;22.15;62.78;99841.06;5049716;28;20244;-66
2021/07/29 05:30:38;;;;;;;8.03;4.60;;;;;;;22.22;63.91;99833.72;5050127;28;20284;-66
2021/07/29 05:33:06;;;;;;;8.80;4.47;;;;;;;22.48;64.25;99839.34;5050700;28;20221;-66
2021/07/29 05:35:34;;;;;;;10.73;4.77;;;;;;;22.60;63.94;99840.44;5050379;28;20209;-66
2021/07/29 05:38:02;;;;;;;5.83;3.87;;;;;;;22.90;61.91;99834.69;5050623;28;20675;-65
2021/07/29 05:40:31;;;;;;;4.23;3.60;;;;;;;23.18;61.87;99838.13;5050291;28;20209;-65
2021/07/29 05:42:59;;;;;;;5.97;3.60;;;;;;;23.38;62.49;99834.56;5050408;28;20220;-66
2021/07/29 05:45:28;;;;;;;5.40;3.83;;;;;;;23.48;62.56;99824.88;5050110;28;20209;-65
2021/07/29 05:47:56;;;;;;;5.33;4.03;;;;;;;23.71;61.48;99837.34;5049864;28;20213;-66
2021/07/29 05:50:24;;;;;;;4.07;3.33;;;;;;;23.70;61.18;99824.69;5042901;28;20275;-66
2021/07/29 05:52:53;;;;;;;4.03;2.93;;;;;;;23.79;60.41;99824.25;5049321;28;20690;-66
2021/07/29 05:55:21;;;;;;;4.17;3.03;;;;;;;23.95;60.18;99816.66;5049132;28;20201;-66
2021/07/29 05:57:50;;;;;;;4.10;3.10;;;;;;;23.97;60.33;99814.53;5048868;28;20209;-66
2021/07/29 06:00:19;;;;;;;6.00;3.50;;;;;;;23.99;60.02;99817.91;5049206;28;20229;-66
2021/07/29 06:02:47;;;;;;;3.70;2.93;;;;;;;24.13;59.31;99809.44;5047788;28;20206;-67
2021/07/29 06:05:15;;;;;;;8.60;3.63;;;;;;;24.01;59.45;99810.31;5048880;28;20205;-67
2021/07/29 06:07:43;;;;;;;4.37;3.30;;;;;;;23.93;59.99;99808.66;5048412;28;20756;-67
2021/07/29 06:10:12;;;;;;;4.40;3.40;;;;;;;23.99;59.26;99806.94;5048366;28;20194;-67
2021/07/29 06:12:40;;;;;;;4.30;3.40;;;;;;;23.63;59.36;99811.00;5048081;28;20221;-67
2021/07/29 06:15:11;;;;;;;4.27;3.50;;;;;;;23.77;59.17;99809.09;5048468;28;20208;-67
2021/07/29 06:17:39;;;;;;;4.67;3.40;;;;;;;23.56;59.98;99807.41;5067423;28;20297;-67
2021/07/29 06:20:09;;;;;;;5.40;3.40;;;;;;;23.70;60.35;99802.78;5052830;28;20209;-67
2021/07/29 06:22:37;;;;;;;6.67;3.50;;;;;;;23.76;59.82;99804.66;5053155;28;20194;-67
2021/07/29 06:25:08;;;;;;;6.13;3.33;;;;;;;23.56;60.52;99785.47;5068474;28;20293;-67
2021/07/29 06:27:37;;;;;;;4.73;3.63;;;;;;;23.73;60.67;99792.22;5053126;28;20206;-67
2021/07/29 06:30:06;;;;;;;4.63;3.23;;;;;;;23.93;59.78;99791.34;5053138;28;20230;-67
2021/07/29 06:32:36;;;;;;;4.27;3.27;;;;;;;23.87;59.04;99792.19;5039060;28;20601;-68
2021/07/29 06:35:04;;;;;;;6.40;3.77;;;;;;;23.67;59.54;99786.75;5041490;28;20208;-66
2021/07/29 06:37:33;;;;;;;5.20;3.50;;;;;;;23.46;60.01;99774.06;5038737;28;20202;-65
2021/07/29 06:40:01;;;;;;;7.53;3.87;;;;;;;23.28;60.54;99791.16;5053421;28;20229;-66
2021/07/29 06:42:29;;;;;;;4.67;3.37;;;;;;;23.27;60.57;99786.72;5052685;28;20201;-66
2021/07/29 06:44:58;;;;;;;4.33;3.30;;;;;;;23.45;60.11;99788.81;5052005;28;20210;-67
2021/07/29 06:47:27;;;;;;;7.40;3.90;;;;;;;23.56;61.35;99781.88;5048537;28;20197;-67
2021/07/29 06:49:57;;;;;;;7.93;3.60;;;;;;;23.70;60.74;99776.19;5049380;28;20198;-67
2021/07/29 06:52:26;;;;;;;5.93;3.40;;;;;;;23.79;60.26;99766.66;5049034;28;20222;-67
2021/07/29 06:54:54;;;;;;;4.50;3.40;;;;;;;24.00;60.35;99764.75;5046793;28;20251;-67
2021/07/29 06:57:22;;;;;;;4.60;3.70;;;;;;;23.81;59.90;99755.47;5050081;28;20221;-66
2021/07/29 06:59:50;;;;;;;3.93;3.20;;;;;;;23.68;59.82;99756.38;5048566;28;20284;-65
2021/07/29 07:02:18;;;;;;;4.27;3.30;;;;;;;23.88;59.93;99758.22;5050102;28;20198;-66
2021/07/29 07:04:46;;;;;;;6.37;2.93;;;;;;;23.78;59.70;99750.44;5050020;28;20279;-67
2021/07/29 07:07:17;;;;;;;4.27;3.27;;;;;;;23.76;60.63;99739.69;5050064;28;20667;-65
2021/07/29 07:09:45;;;;;;;4.30;3.60;;;;;;;23.81;60.08;99756.31;5049840;28;20189;-67
2021/07/29 07:12:14;;;;;;;4.87;3.70;;;;;;;23.75;60.10;99754.44;5047659;28;20233;-67
2021/07/29 07:14:42;;;;;;;4.10;3.20;;;;;;;23.93;59.89;99755.69;5049902;28;20218;-65
2021/07/29 07:17:10;;;;;;;6.63;3.30;;;;;;;23.91;59.26;99706.53;5050281;28;20643;-66
2021/07/29 07:19:38;;;;;;;6.57;3.57;;;;;;;24.03;59.46;99750.59;5050261;28;20285;-66
2021/07/29 07:22:06;;;;;;;4.60;3.03;;;;;;;23.91;58.81;99742.19;5050933;28;20285;-65
2021/07/29 07:24:36;;;;;;;3.70;2.93;;;;;;;24.17;58.01;99750.31;5051766;28;20194;-65
2021/07/29 07:27:06;;;;;;;3.63;3.17;;;;;;;24.17;58.07;99749.47;5050904;28;20204;-65
2021/07/29 07:29:34;;;;;;;6.07;3.10;;;;;;;24.21;58.05;99734.28;5052010;28;20233;-65
2021/07/29 07:32:03;;;;;;;4.33;3.10;;;;;;;24.34;58.37;99742.47;5049373;28;20214;-65
2021/07/29 07:34:31;;;;;;;4.17;2.87;;;;;;;24.30;58.23;99745.88;5051018;28;20214;-65
2021/07/29 07:36:59;;;;;;;3.60;3.00;;;;;;;24.34;57.46;99737.00;5048255;28;20208;-66
2021/07/29 07:39:27;;;;;;;3.80;2.93;;;;;;;24.42;57.41;99735.88;5050794;28;20213;-66
2021/07/29 07:41:57;;;;;;;9.23;2.80;;;;;;;24.43;57.19;99732.06;5049216;28;20281;-65
2021/07/29 07:44:25;;;;;;;3.37;3.00;;;;;;;24.44;57.62;99737.34;5050978;28;20196;-65
2021/07/29 07:46:54;;;;;;;6.83;2.80;;;;;;;24.25;57.38;99720.97;5051060;28;20202;-65
2021/07/29 07:49:22;;;;;;;3.70;3.07;;;;;;;24.52;57.42;99725.28;5049378;28;20206;-67
2021/07/29 07:51:50;;;;;;;4.03;3.00;;;;;;;24.72;57.73;99719.66;5061828;28;20572;-67
2021/07/29 07:54:18;;;;;;;4.03;2.97;;;;;;;24.97;57.23;99723.28;5051094;28;20230;-66
2021/07/29 07:56:46;;;;;;;3.80;2.70;;;;;;;25.10;56.53;99716.03;5050276;28;20201;-66
2021/07/29 07:59:15;;;;;;;3.67;3.03;;;;;;;25.04;56.53;99715.88;5050666;28;20205;-67
2021/07/29 08:01:44;;;;;;;5.80;3.27;;;;;;;25.02;56.57;99715.25;5037462;28;20206;-67
2021/07/29 08:04:16;;;;;;;3.87;3.10;;;;;;;24.86;56.42;99710.28;5049365;28;20206;-67
2021/07/29 08:06:46;;;;;;;6.37;3.20;;;;;;;25.01;55.91;99712.72;5063354;28;20252;-67
2021/07/29 08:09:14;;;;;;;4.10;3.07;;;;;;;25.11;55.79;99710.34;5048398;28;20194;-67
2021/07/29 08:11:42;;;;;;;4.87;3.00;;;;;;;25.11;56.25;99706.75;5047903;28;20214;-66
2021/07/29 08:14:11;;;;;;;4.47;2.80;;;;;;;25.13;55.88;99693.63;5048090;28;20249;-66
2021/07/29 08:16:40;;;;;;;4.40;2.70;;;;;;;25.05;56.39;99694.72;5048043;28;20206;-66
2021/07/29 08:19:08;;;;;;;3.33;2.83;;;;;;;25.14;56.08;99692.56;5048514;28;20199;-66
2021/07/29 08:21:36;;;;;;;3.77;3.20;;;;;;;25.04;55.89;99690.31;5050138;28;20212;-68
2021/07/29 08:24:05;;;;;;;3.33;3.03;;;;;;;25.15;55.75;99683.25;5037180;28;20190;-67
2021/07/29 08:26:33;;;;;;;2.70;2.50;;;;;;;25.23;54.99;99683.81;5050773;28;20599;-67
2021/07/29 08:29:02;;;;;;;3.40;2.90;;;;;;;25.27;54.79;99684.19;5049027;28;20765;-67
2021/07/29 08:31:30;;;;;;;5.50;3.13;;;;;;;25.20;54.53;99691.66;5051003;28;20209;-67
2021/07/29 08:34:00;;;;;;;4.90;3.00;;;;;;;25.21;55.25;99685.09;5050205;28;20640;-67
2021/07/29 08:36:28;;;;;;;4.23;3.10;;;;;;;25.17;55.67;99679.22;5050758;28;20208;-68
2021/07/29 08:38:56;;;;;;;4.73;3.00;;;;;;;25.10;56.21;99674.81;5050010;28;20205;-68
2021/07/29 08:41:24;;;;;;;4.23;2.80;;;;;;;25.05;56.24;99673.59;5050449;28;20494;-68
2021/07/29 08:43:52;;;;;;;3.67;2.97;;;;;;;25.13;56.51;99667.00;5050372;28;20202;-67
2021/07/29 08:46:21;;;;;;;2.80;2.60;;;;;;;25.15;56.15;99655.78;5049375;28;20545;-67
2021/07/29 08:48:51;;;;;;;3.83;2.60;;;;;;;25.12;55.79;99657.06;5050359;28;20269;-67
2021/07/29 08:51:23;;;;;;;3.70;2.63;;;;;;;24.88;55.47;99663.38;5044437;28;20197;-67
2021/07/29 08:53:52;;;;;;;2.73;2.53;;;;;;;24.84;54.70;99657.47;5050225;28;20226;-67
2021/07/29 08:56:24;;;;;;;2.40;2.20;;;;;;;24.89;55.02;99648.56;5050097;28;20270;-68
2021/07/29 08:58:53;;;;;;;3.43;2.43;;;;;;;24.87;55.92;99654.28;5050436;28;20230;-67
2021/07/29 09:01:21;;;;;;;3.97;2.90;;;;;;;24.82;56.00;99648.63;5049947;28;20194;-67
2021/07/29 09:03:52;;;;;;;4.80;2.83;;;;;;;24.92;55.23;99657.19;5066065;28;20209;-67
2021/07/29 09:06:22;;;;;;;4.03;2.47;;;;;;;24.74;56.20;99648.88;5050015;28;20280;-68
2021/07/29 09:08:51;;;;;;;3.10;2.53;;;;;;;24.54;57.63;99648.19;5050022;28;20217;-67
2021/07/29 09:11:37;;;;;;;4.47;2.77;;;;;;;24.49;59.36;99648.00;5065284;28;20206;-68
2021/07/29 09:14:12;;;;;;;4.03;3.20;;;;;;;24.53;59.02;99646.50;5062402;28;20758;-67
2021/07/29 09:16:57;;;;;;;6.63;2.97;;;;;;;24.54;60.45;99654.53;5044827;28;20260;-66
2021/07/29 09:19:31;;;;;;;3.57;2.90;;;;;;;24.41;60.60;99640.88;5065137;28;20222;-66
2021/07/29 09:22:15;;;;;;;5.17;3.10;;;;;;;24.46;61.30;99641.88;5049983;28;20194;-66
2021/07/29 09:25:05;;;;;;;3.97;2.60;;;;;;;24.60;60.46;99634.41;5049685;28;20198;-66
2021/07/29 09:27:45;;;;;;;7.07;3.00;;;;;;;24.70;60.66;99639.41;5049579;28;20749;-66
2021/07/29 09:30:16;;;;;;;6.13;3.00;;;;;;;24.65;60.41;99622.75;5064857;28;20233;-66
2021/07/29 09:32:59;;;;;;;3.17;2.70;;;;;;;24.76;59.73;99635.75;5049491;28;20212;-68
2021/07/29 09:35:32;;;;;;;6.40;2.90;;;;;;;24.79;59.16;99624.31;5049470;28;20225;-67
2021/07/29 09:38:02;;;;;;;6.87;3.30;;;;;;;24.68;59.32;99619.56;5049528;28;20236;-67
2021/07/29 09:40:42;;;;;;;3.50;2.80;;;;;;;24.84;57.45;99627.25;5049264;28;20240;-68
2021/07/29 09:43:13;;;;;;;3.30;2.80;;;;;;;24.61;58.65;99629.75;5049721;28;20717;-68
2021/07/29 09:45:42;;;;;;;3.30;2.93;;;;;;;24.81;58.73;99624.97;5064670;28;20252;-66
2021/07/29 09:48:11;;;;;;;4.37;2.77;;;;;;;25.02;58.72;99631.97;5064828;28;20206;-67
2021/07/29 09:50:41;;;;;;;3.27;2.40;;;;;;;25.26;56.83;99614.63;5048228;28;20599;-67
2021/07/29 09:53:12;;;;;;;2.47;2.27;;;;;;;25.34;55.50;99614.31;5049568;28;20198;-66
2021/07/29 09:55:40;;;;;;;2.00;1.80;;;;;;;25.72;53.69;99610.56;5049070;28;20272;-67
2021/07/29 09:58:08;;;;;;;2.00;1.90;;;;;;;25.88;54.00;99612.66;5049399;28;20655;-67
2021/07/29 10:00:38;;;;;;;4.30;2.10;;;;;;;26.13;53.42;99609.78;5049047;28;20329;-66
2021/07/29 10:03:08;;;;;;;2.35;2.03;;;;;;;26.17;52.40;99596.41;5049656;28;20326;-66
2021/07/29 10:05:44;;;;;;;4.95;2.03;;;;;;;26.04;50.84;99607.63;5064782;28;20675;-66
2021/07/29 10:08:22;;;;;;;2.42;1.80;;;;;;;26.16;50.63;99611.25;5049257;28;20200;-66
2021/07/29 10:10:51;;;;;;;3.05;2.22;;;;;;;26.05;50.46;99604.63;5064762;28;20220;-66
2021/07/29 10:13:20;;;;;;;2.40;2.20;;;;;;;25.54;51.07;99600.38;5049444;28;20277;-66
2021/07/29 10:15:48;;;;;;;2.07;1.97;;;;;;;25.24;51.14;99591.19;5049344;28;20241;-66
2021/07/29 10:18:16;;;;;;;2.38;1.95;;;;;;;25.19;50.41;99593.78;5049227;28;20198;-66
2021/07/29 10:20:44;;;;;;;2.70;2.00;;;;;;;24.88;50.80;99594.69;5049104;28;20276;-67
2021/07/29 10:23:30;;;;;;;4.07;2.20;;;;;;;24.50;51.13;99568.19;5049249;28;20210;-67
2021/07/29 10:26:10;;;;;;;2.93;1.70;;;;;;;24.81;51.65;99586.50;5036869;28;20198;-66
2021/07/29 10:28:39;;;;;;;1.80;1.70;;;;;;;25.30;50.53;99588.34;5048947;28;20230;-67
2021/07/29 10:31:13;;;;;;;1.87;1.70;;;;;;;25.50;49.51;99574.41;5049078;28;20208;-67
2021/07/29 10:33:42;;;;;;;1.90;1.60;;;;;;;25.68;48.23;99574.41;5049020;28;20663;-67
2021/07/29 10:36:45;;;;;;;1.92;1.70;;;;;;;25.81;46.36;99562.41;5049347;28;20198;-67
2021/07/29 10:39:15;;;;;;;1.83;1.73;;;;;;;25.46;47.90;99544.84;5048950;28;20275;-66
2021/07/29 10:41:54;;;;;;;2.42;1.70;;;;;;;25.51;47.46;99591.72;5048871;28;20557;-66
2021/07/29 10:44:47;;;;;;;2.77;1.70;;;;;;;24.85;48.89;99603.38;5048767;28;20200;-67
2021/07/29 10:47:35;;;;;;;2.23;1.70;;;;;;;24.16;51.63;99618.81;5048875;28;20216;-66
2021/07/29 10:50:19;;;;;;;6.03;1.40;;;;;;;23.89;52.72;99604.41;5037716;28;20201;-67
2021/07/29 10:52:53;;;;;;;2.10;1.60;;;;;;;23.79;53.34;99585.66;5048554;28;20222;-66
2021/07/29 10:55:23;;;;;;;3.67;1.50;;;;;;;23.38;54.64;99557.78;5048829;28;20265;-67
2021/07/29 10:58:10;;;;;;;4.67;1.60;;;;;;;23.57;55.01;99595.25;5048664;28;20190;-67
2021/07/29 11:00:52;;;;;;;1.60;1.50;;;;;;;23.53;55.13;99588.47;5047490;28;20224;-65
2021/07/29 11:03:23;;;;;;;2.60;1.67;;;;;;;23.34;56.91;99584.78;5044025;28;20316;-65
2021/07/29 11:06:03;;;;;;;1.60;1.50;;;;;;;23.51;56.30;99580.47;5051211;28;20198;-70
2021/07/29 11:08:32;;;;;;;4.87;2.00;;;;;;;23.19;57.07;99543.91;5064037;28;20217;-65
2021/07/29 11:11:02;;;;;;;2.23;1.90;;;;;;;23.45;57.88;99570.38;5050420;28;20240;-66
2021/07/29 11:13:31;;;;;;;3.67;1.70;;;;;;;23.72;58.28;99565.66;5048257;28;20220;-67
2021/07/29 11:16:01;;;;;;;3.53;1.90;;;;;;;24.01;56.13;99568.91;5048844;28;20713;-67
2021/07/29 11:18:30;;;;;;;2.40;1.80;;;;;;;24.33;55.66;99556.88;5045082;28;20202;-67
2021/07/29 11:21:12;;;;;;;2.67;1.70;;;;;;;24.74;53.09;99559.06;5049820;28;20238;-67
2021/07/29 11:23:40;;;;;;;1.97;1.70;;;;;;;25.06;52.18;99556.25;5051629;28;20252;-67
2021/07/29 11:26:10;;;;;;;2.00;1.70;;;;;;;25.16;51.09;99553.00;5050966;28;20283;-67
2021/07/29 11:28:38;;;;;;;1.87;1.60;;;;;;;25.04;50.41;99522.69;5051143;28;20257;-68
2021/07/29 11:31:22;;;;;;;1.80;1.70;;;;;;;25.06;50.43;99543.38;5050803;28;20198;-68
2021/07/29 11:33:51;;;;;;;2.40;1.70;;;;;;;24.83;49.96;99545.06;5049906;28;20542;-68
2021/07/29 11:36:20;;;;;;;1.60;1.50;;;;;;;24.96;49.27;99544.94;5064708;28;20231;-68
2021/07/29 11:38:56;;;;;;;1.43;1.33;;;;;;;24.75;47.11;99521.47;5047702;28;20208;-68
2021/07/29 11:41:26;;;;;;;2.93;1.43;;;;;;;24.78;46.67;99543.81;5050494;28;20667;-68
2021/07/29 11:43:55;;;;;;;1.50;1.40;;;;;;;24.70;46.00;99551.50;5051488;28;20554;-68
2021/07/29 11:46:23;;;;;;;2.30;1.30;;;;;;;24.86;46.32;99545.47;5047576;28;20213;-69
2021/07/29 11:49:05;;;;;;;2.00;1.30;;;;;;;24.75;46.14;99469.28;5046934;28;20208;-67